Flight Track Log - Related Links

Times and Time Zones

All times are in EDT time to prevent confusion due to time zone crossing. See the CTL13 flight status page for this flight to view local times or setup timezone preferences in your user account.

Time Position Orientation Groundspeed Altitude Reporting Facility
EDT Latitude Longitude Course Direction KTS km/h feet Rate Location/Type
Thu 20:24:09 39.9333 -86.3000 339° North 160 296 2.400  Level Indianapolis TRACON
Thu 20:25:09 39.9667 -86.3333 323° Northwest 159 295 3.000 486 Climbing Indianapolis TRACON
Thu 20:27:14 40.0225 -86.4131 312° West 161 298 3.900 385 Climbing Indianapolis Center
Thu 20:28:16 40.0550 -86.4533 317° Northwest 160 296 4.200 390 Climbing Indianapolis Center
Thu 20:29:17 40.0936 -86.4994 318° Northwest 160 296 4.700 439 Climbing Indianapolis Center
Thu 20:30:19 40.1261 -86.5375 318° Northwest 158 293 5.100 435 Climbing Indianapolis Center
Thu 20:31:21 40.1581 -86.5775 316° Northwest 157 291 5.600 407 Climbing Indianapolis Center
Thu 20:32:17 40.1853 -86.6108 317° Northwest 156 290 5.900 203 Climbing Chicago Center
Thu 20:33:19 40.2222 -86.6553 317° Northwest 155 286 6.000 45 Climbing Chicago Center
Thu 20:34:30 40.2631 -86.7028 318° Northwest 164 304 6.000  Level Chicago Center
Thu 20:35:24 40.2928 -86.7358 320° Northwest 166 307 6.000  Level Chicago Center
Thu 20:36:32 40.3311 -86.7861 315° West 163 303 6.000  Level Chicago Center
Thu 20:37:27 40.3567 -86.8181 316° Northwest 158 293 6.000  Level Chicago Center
Thu 20:38:33 40.3928 -86.8639 316° Northwest 156 290 6.000  Level Chicago Center
Thu 20:39:31 40.4192 -86.8967 317° Northwest 154 285 6.000  Level Chicago Center
Thu 20:40:34 40.4572 -86.9433 317° Northwest 157 291 6.000  Level Chicago Center
Thu 20:41:35 40.4864 -86.9822 315° West 156 290 6.000  Level Chicago Center
Thu 20:42:35 40.5181 -87.0225 316° Northwest 153 283 6.000  Level Chicago Center
Thu 20:43:40 40.5494 -87.0600 318° Northwest 150 278 6.000  Level Chicago Center
Thu 20:44:42 40.5839 -87.0917 325° Northwest 147 272 6.000  Level Chicago Center
Thu 20:45:44 40.6242 -87.1086 342° North 152 282 6.000  Level Chicago Center
Thu 20:46:46 40.6711 -87.1333 338° Northwest 152 282 6.000  Level Chicago Center
Thu 20:47:48 40.7103 -87.1544 338° Northwest 151 280 6.000  Level Chicago Center
Thu 20:48:50 40.7492 -87.1742 339° North 151 280 6.000  Level Chicago Center
Thu 20:49:52 40.7867 -87.1942 338° Northwest 148 274 6.000  Level Chicago Center
Thu 20:50:54 40.8231 -87.2136 338° Northwest 143 266 6.000  Level Chicago Center
Thu 20:51:56 40.8656 -87.2386 336° Northwest 141 261 6.000  Level Chicago Center
Thu 20:52:58 40.9044 -87.2564 341° North 146 270 6.000  Level Chicago Center
Thu 20:54:01 40.9419 -87.2756 339° North 146 270 6.000  Level Chicago Center
Thu 20:55:03 40.9783 -87.2969 336° Northwest 145 269 6.000 -48 Level Chicago Center
Thu 20:56:05 41.0156 -87.3167 338° Northwest 144 267 5.900 -48 Descending Chicago Center
Thu 20:57:07 41.0606 -87.3394 339° North 145 269 5.900  Level Chicago Center
Thu 20:58:09 41.0978 -87.3592 338° Northwest 144 267 5.900  Level Chicago Center
Thu 20:59:11 41.1347 -87.3797 337° Northwest 145 269 5.900  Level Chicago Center
Thu 21:00:13 41.1722 -87.3997 338° Northwest 145 269 5.900 -194 Level Chicago Center
Thu 21:01:15 41.2128 -87.4203 339° North 152 282 5.500 -581 Descending Chicago Center
Thu 21:02:17 41.2633 -87.4467 339° North 159 295 4.700 -677 Descending Chicago Center
Thu 21:03:19 41.3108 -87.4703 340° North 171 317 4.100 -387 Descending Chicago Center
Thu 21:04:21 41.3561 -87.4933 339° North 176 327 3.900 -97 Descending Chicago Center
Thu 21:05:23 41.3994 -87.5169 338° Northwest 174 322 3.900  Level Chicago Center
Thu 21:06:26 41.4456 -87.5219 355° North 171 317 3.900  Level Chicago Center
Thu 21:07:28 41.5017 -87.5275 356° North 171 317 3.900  Level Chicago Center
Thu 21:08:30 41.5394 -87.4861 39° Northeast 184 341 3.900  Level Chicago Center
Thu 21:09:32 41.5808 -87.4975 348° North 179 332 3.900  Level Chicago Center
Thu 21:10:34 41.6219 -87.5228 335° Northwest 169 312 3.900 -194 Level Chicago Center
Thu 21:11:36 41.6522 -87.5661 313° West 165 306 3.500 -629 Descending Chicago Center
Thu 21:12:38 41.6903 -87.6197 314° West 166 307 2.600 -726 Descending Chicago Center
Thu 21:13:40 41.7200 -87.6622 313° West 163 303 2.000 -462 Descending Chicago Center
Thu 21:14:35 41.7500 -87.7000 317° Northwest 142 262 1.700 -496 Descending Chicago TRACON
Thu 21:15:41 41.7667 -87.7333 304° West 101 187 1.000 -636 Descending Chicago TRACON
Thu 21:17:00 41.7833 -87.7500 334° Northwest  Level FlightAware Approximate

Login

Don't have an account? Register now (free) for customized features, flight alerts, and more!